Time;durP1;ratioP1;P1;durP2;ratioP2;P2;SDS_P1;SDS_P2;PMS_P1;PMS_P2;Temp;Humidity;BMP_temperature;BMP_pressure;BME280_temperature;BME280_humidity;BME280_pressure;Samples;Min_cycle;Max_cycle;Signal;HPM_P1;HPM_P2
2022/11/06 00:01:09;;;;;;;;;11.50;10.00;;;;;12.68;65.75;100910.38;4990250;28;45851;-77
2022/11/06 00:03:35;;;;;;;;;8.25;8.25;;;;;12.66;65.38;100920.16;4974845;28;46585;-75
2022/11/06 00:08:49;;;;;;;;;7.75;5.00;;;;;12.61;65.41;100897.69;4971015;28;45914;-77
2022/11/06 00:11:17;;;;;;;;;7.00;7.00;;;;;12.59;65.42;100902.22;4992833;28;45980;-78
2022/11/06 00:13:46;;;;;;;;;9.75;7.00;;;;;12.54;65.38;100895.63;4970692;28;46657;-78
2022/11/06 00:16:13;;;;;;;;;7.75;7.00;;;;;12.50;65.37;100891.56;4969693;28;46179;-77
2022/11/06 00:18:40;;;;;;;;;7.75;7.00;;;;;12.50;65.45;100908.19;4970224;28;45565;-77
2022/11/06 00:21:13;;;;;;;;;9.00;8.00;;;;;12.52;65.24;100924.66;4976254;28;45533;-78
2022/11/06 00:23:40;;;;;;;;;7.25;5.00;;;;;12.54;65.80;100932.44;4977352;28;46424;-77
2022/11/06 00:26:08;;;;;;;;;4.50;4.50;;;;;12.53;65.67;100923.69;4988723;28;46396;-75
2022/11/06 00:28:34;;;;;;;;;5.00;5.00;;;;;12.53;65.40;100914.97;4982602;28;45820;-76
2022/11/06 00:31:01;;;;;;;;;7.75;7.75;;;;;12.38;65.30;100895.94;5049789;28;45996;-78
2022/11/06 00:33:26;;;;;;;;;7.25;5.25;;;;;12.53;65.54;100928.13;5051549;28;46464;-78
2022/11/06 00:35:52;;;;;;;;;5.25;4.50;;;;;12.48;65.36;100914.47;5046051;28;46239;-78
2022/11/06 00:38:17;;;;;;;;;5.00;5.00;;;;;12.54;65.23;100920.13;5051192;28;45758;-78
2022/11/06 00:40:42;;;;;;;;;7.75;5.00;;;;;12.54;65.21;100916.66;5051882;28;46221;-77
2022/11/06 00:43:08;;;;;;;;;4.75;4.00;;;;;12.52;65.28;100910.69;5051526;28;46681;-77
2022/11/06 00:45:33;;;;;;;;;8.00;7.00;;;;;12.53;65.31;100914.97;5058088;28;45909;-77
2022/11/06 00:47:58;;;;;;;;;6.75;5.25;;;;;12.50;65.39;100907.34;5051099;28;45603;-76
2022/11/06 00:50:25;;;;;;;;;5.00;4.00;;;;;12.50;65.36;100905.53;5051605;28;45583;-75
2022/11/06 00:52:50;;;;;;;;;7.75;6.00;;;;;12.50;65.31;100907.34;5051716;28;45688;-79
2022/11/06 00:55:16;;;;;;;;;8.50;7.50;;;;;12.49;65.41;100906.50;5051397;28;45544;-77
2022/11/06 00:57:41;;;;;;;;;5.00;4.00;;;;;12.27;65.60;100856.47;5056742;28;45672;-77
2022/11/06 01:00:07;;;;;;;;;6.50;4.75;;;;;12.41;65.65;100882.59;5057475;28;45800;-77
2022/11/06 01:02:32;;;;;;;;;6.00;5.25;;;;;12.45;65.71;100884.03;5051346;28;46932;-77
2022/11/06 01:04:57;;;;;;;;;7.00;4.50;;;;;12.44;65.51;100886.75;5050902;28;46441;-78
2022/11/06 01:07:23;;;;;;;;;7.25;7.00;;;;;12.39;65.44;100886.28;5050741;28;46058;-78
2022/11/06 01:09:48;;;;;;;;;5.00;5.00;;;;;12.43;65.80;100891.19;5051216;28;45838;-78
2022/11/06 01:12:14;;;;;;;;;6.00;4.00;;;;;12.40;65.69;100878.28;5051000;28;46513;-78
2022/11/06 01:14:40;;;;;;;;;5.00;4.00;;;;;12.44;65.51;100882.34;5051747;28;46775;-78
2022/11/06 01:17:05;;;;;;;;;7.00;5.00;;;;;12.45;65.72;100860.38;5051787;28;46101;-76
2022/11/06 01:19:31;;;;;;;;;4.00;4.00;;;;;12.41;65.46;100845.81;5054326;28;45665;-77
2022/11/06 01:21:56;;;;;;;;;6.00;4.50;;;;;12.48;65.53;100856.66;5054433;28;46600;-78
2022/11/06 01:24:26;;;;;;;;;8.25;4.50;;;;;12.44;65.35;100848.19;5054437;28;46256;-78
2022/11/06 01:26:52;;;;;;;;;6.00;5.25;;;;;12.50;65.66;100860.03;5056573;28;45758;-77
2022/11/06 01:29:19;;;;;;;;;7.75;5.50;;;;;12.53;65.69;100865.03;5054075;28;45741;-78
2022/11/06 01:31:45;;;;;;;;;8.00;5.00;;;;;12.54;65.67;100858.84;5055291;28;45711;-78
2022/11/06 01:34:12;;;;;;;;;4.00;4.00;;;;;12.54;65.18;100856.22;5060516;28;45757;-78
2022/11/06 01:36:38;;;;;;;;;5.25;5.25;;;;;12.56;65.71;100862.19;5052682;28;45948;-78
2022/11/06 01:39:06;;;;;;;;;4.75;4.75;;;;;12.55;65.88;100858.72;5054206;28;45663;-78
2022/11/06 01:41:36;;;;;;;;;7.00;5.00;;;;;12.51;65.66;100859.94;5054103;28;45773;-76
2022/11/06 01:44:30;;;;;;;;;4.75;4.75;;;;;12.55;65.37;100865.78;5053840;28;47252;-78
2022/11/06 01:46:56;;;;;;;;;5.00;3.75;;;;;12.55;65.78;100863.16;4990608;28;45921;-78
2022/11/06 01:49:22;;;;;;;;;4.75;4.25;;;;;12.47;65.48;100844.50;4992056;28;45662;-77
2022/11/06 01:51:57;;;;;;;;;4.00;3.50;;;;;12.54;65.65;100856.22;4992073;28;46651;-77
2022/11/06 01:54:26;;;;;;;;;4.00;4.00;;;;;12.55;65.56;100853.47;4991602;28;46610;-77
2022/11/06 01:56:54;;;;;;;;;6.50;4.00;;;;;12.45;65.69;100834.09;4991217;28;45751;-76
2022/11/06 01:59:22;;;;;;;;;7.00;5.00;;;;;12.57;65.49;100838.44;4991410;28;45763;-78
2022/11/06 02:01:48;;;;;;;;;7.50;7.00;;;;;12.57;65.68;100830.56;4991504;28;46541;-78
2022/11/06 02:04:19;;;;;;;;;5.00;5.00;;;;;12.47;65.37;100812.97;4991295;28;45683;-76
2022/11/06 02:06:45;;;;;;;;;6.50;3.75;;;;;12.57;65.70;100830.56;4989562;28;45753;-78
2022/11/06 02:09:11;;;;;;;;;5.50;3.75;;;;;12.54;65.12;100816.78;4992388;28;45702;-78
2022/11/06 02:11:46;;;;;;;;;4.00;3.50;;;;;12.52;65.78;100813.47;4991642;28;46506;-78
2022/11/06 02:14:38;;;;;;;;;3.00;3.00;;;;;12.58;65.35;100813.81;4991279;28;46440;-76
2022/11/06 02:17:14;;;;;;;;;5.00;4.00;;;;;12.59;65.39;100810.22;4990055;28;60114;-76
2022/11/06 02:19:51;;;;;;;;;4.50;4.00;;;;;12.57;65.80;100793.75;4991027;28;45719;-76
2022/11/06 02:22:22;;;;;;;;;7.00;6.00;;;;;12.56;65.50;100776.31;4991241;28;46276;-78
2022/11/06 02:24:54;;;;;;;;;8.00;4.00;;;;;12.58;65.23;100770.91;5049446;28;45884;-78
2022/11/06 02:27:23;;;;;;;;;5.00;4.00;;;;;12.57;65.16;100756.97;5058195;28;45641;-78
2022/11/06 02:30:01;;;;;;;;;4.25;4.25;;;;;12.52;65.17;100751.19;5054803;28;45786;-78
2022/11/06 02:32:35;;;;;;;;;5.00;4.00;;;;;12.43;65.40;100737.94;5053136;28;45575;-75
2022/11/06 02:35:09;;;;;;;;;4.50;4.00;;;;;12.47;65.38;100744.66;5039520;28;46176;-78
2022/11/06 02:37:38;;;;;;;;;4.00;4.00;;;;;12.57;65.26;100767.47;5046826;28;45668;-78
2022/11/06 02:40:08;;;;;;;;;4.00;4.00;;;;;12.56;65.56;100768.44;5053695;28;45799;-77
2022/11/06 02:42:40;;;;;;;;;7.00;4.75;;;;;12.53;65.54;100763.38;5053062;28;45640;-78
2022/11/06 02:45:08;;;;;;;;;5.25;4.00;;;;;12.55;65.36;100765.91;5053144;28;46488;-77
2022/11/06 02:47:34;;;;;;;;;3.00;2.75;;;;;12.48;65.29;100767.31;5052710;28;45998;-77
2022/11/06 02:50:11;;;;;;;;;4.75;3.25;;;;;12.52;65.30;100779.28;5053194;28;45690;-78
2022/11/06 02:52:58;;;;;;;;;2.00;2.00;;;;;12.54;65.50;100772.13;5053176;28;46618;-77
2022/11/06 02:55:35;;;;;;;;;4.25;4.00;;;;;12.53;65.38;100760.75;5051985;28;46191;-78
2022/11/06 02:58:08;;;;;;;;;3.25;3.00;;;;;12.54;65.43;100778.22;5052498;28;45900;-78
2022/11/06 03:00:36;;;;;;;;;4.00;3.00;;;;;12.55;65.69;100781.69;5053277;28;45632;-76
2022/11/06 03:03:09;;;;;;;;;2.25;2.25;;;;;12.57;65.31;100774.53;5034930;28;49050;-78
2022/11/06 03:05:45;;;;;;;;;4.50;4.00;;;;;12.51;65.21;100765.31;5052960;28;46152;-78
2022/11/06 03:08:16;;;;;;;;;3.00;3.00;;;;;12.57;65.50;100758.75;5052555;28;45811;-77
2022/11/06 03:11:07;;;;;;;;;4.75;3.75;;;;;12.57;65.09;100754.34;5043907;28;45949;-77
2022/11/06 03:14:00;;;;;;;;;4.75;4.00;;;;;12.57;65.26;100751.72;5052222;28;46497;-77
2022/11/06 03:16:25;;;;;;;;;2.25;2.25;;;;;12.57;65.34;100735.09;5055988;28;46270;-78
2022/11/06 03:19:37;;;;;;;;;4.00;3.00;;;;;12.57;65.54;100728.06;5052418;28;45758;-78
2022/11/06 03:22:11;;;;;;;;;3.50;3.25;;;;;12.57;65.06;100720.16;5025316;28;45569;-78
2022/11/06 03:24:57;;;;;;;;;4.50;4.00;;;;;12.52;65.25;100706.53;5052285;28;46447;-78
2022/11/06 03:27:35;;;;;;;;;5.50;3.00;;;;;12.56;65.17;100739.50;5061708;28;47177;-77
2022/11/06 03:30:07;;;;;;;;;3.00;3.00;;;;;12.50;65.13;100713.72;5036693;28;45701;-77
2022/11/06 03:32:45;;;;;;;;;2.25;2.25;;;;;12.52;65.29;100714.41;5059163;28;45521;-77
2022/11/06 03:35:22;;;;;;;;;6.00;4.75;;;;;12.54;64.97;100709.03;5040216;28;46591;-77
2022/11/06 03:38:05;;;;;;;;;4.00;3.50;;;;;12.54;65.24;100716.91;5048429;28;46159;-77
2022/11/06 03:40:38;;;;;;;;;7.00;5.00;;;;;12.52;65.17;100713.59;5052046;28;45932;-78
2022/11/06 03:43:06;;;;;;;;;4.50;3.25;;;;;12.51;65.17;100707.50;5039909;28;45721;-78
2022/11/06 03:45:34;;;;;;;;;3.75;3.25;;;;;12.47;65.26;100702.59;5033104;28;47178;-78
2022/11/06 03:48:24;;;;;;;;;7.00;4.00;;;;;12.48;65.17;100714.75;5051718;28;46088;-78
2022/11/06 03:51:03;;;;;;;;;4.25;4.00;;;;;12.45;65.04;100723.75;5051685;28;45649;-76
2022/11/06 03:53:35;;;;;;;;;4.50;3.50;;;;;12.41;64.92;100713.59;5052184;28;45658;-77
2022/11/06 03:56:13;;;;;;;;;5.00;3.50;;;;;12.44;64.92;100702.81;5050734;28;45930;-78
2022/11/06 03:58:43;;;;;;;;;4.00;4.00;;;;;12.37;65.21;100675.34;5039220;28;46399;-78
2022/11/06 04:01:11;;;;;;;;;4.00;3.25;;;;;12.40;65.18;100690.88;5058755;28;45494;-75
2022/11/06 04:04:15;;;;;;;;;5.00;4.00;;;;;12.39;65.10;100683.94;5051220;28;45745;-77
2022/11/06 04:06:49;;;;;;;;;2.00;1.00;;;;;12.38;64.94;100671.75;5046088;28;46586;-77
2022/11/06 04:14:51;;;;;;;;;4.75;3.00;;;;;12.29;65.06;100673.31;5052542;28;45917;-77
2022/11/06 04:17:19;;;;;;;;;5.50;5.25;;;;;12.32;65.18;100672.22;5042775;28;45837;-76
2022/11/06 04:19:51;;;;;;;;;4.00;3.00;;;;;12.32;65.08;100669.59;5052575;28;47071;-76
2022/11/06 04:22:44;;;;;;;;;4.00;3.00;;;;;12.32;65.13;100664.34;5051544;28;45788;-78
2022/11/06 04:28:11;;;;;;;;;4.50;4.00;;;;;12.29;65.11;100665.44;5051156;28;45983;-77
2022/11/06 04:30:56;;;;;;;;;4.75;4.00;;;;;12.27;65.14;100659.47;5051166;28;46508;-77
2022/11/06 04:33:26;;;;;;;;;3.75;3.00;;;;;12.26;65.09;100660.41;5051408;28;46037;-77
2022/11/06 04:36:09;;;;;;;;;4.50;3.50;;;;;12.21;65.09;100670.44;5056291;28;45740;-78
2022/11/06 04:38:56;;;;;;;;;4.00;3.75;;;;;12.26;65.20;100667.44;5051806;28;46446;-78
2022/11/06 04:41:36;;;;;;;;;3.00;3.00;;;;;12.24;64.95;100654.47;5051665;28;46057;-77
2022/11/06 04:44:12;;;;;;;;;4.00;3.00;;;;;12.24;64.92;100670.22;5051319;28;45638;-77
2022/11/06 04:46:48;;;;;;;;;3.50;3.00;;;;;12.24;64.86;100657.09;5033274;28;45712;-78
2022/11/06 04:49:15;;;;;;;;;4.00;4.00;;;;;12.24;65.38;100658.88;5028446;28;47699;-78
2022/11/06 04:51:44;;;;;;;;;6.25;4.00;;;;;12.24;65.06;100669.38;5043337;28;45824;-78
2022/11/06 04:54:11;;;;;;;;;4.00;3.50;;;;;12.23;65.02;100655.41;5056330;28;45603;-77
2022/11/06 04:56:37;;;;;;;;;3.75;3.00;;;;;12.20;64.78;100648.59;5062794;28;45981;-77
2022/11/06 04:59:03;;;;;;;;;3.50;3.25;;;;;12.17;65.10;100640.94;5054821;28;45944;-78
2022/11/06 05:01:31;;;;;;;;;3.75;3.75;;;;;12.21;65.33;100652.06;5019975;28;46144;-76
2022/11/06 05:03:56;;;;;;;;;4.00;3.00;;;;;12.19;65.19;100646.09;5054711;28;45790;-75
2022/11/06 05:06:22;;;;;;;;;4.00;4.00;;;;;12.17;64.87;100637.50;5054125;28;45831;-77
2022/11/06 05:08:47;;;;;;;;;5.00;5.00;;;;;12.10;65.18;100625.78;5054366;28;46563;-77
2022/11/06 05:11:13;;;;;;;;;5.00;4.00;;;;;12.13;64.93;100626.41;5054560;28;47189;-77
2022/11/06 05:13:40;;;;;;;;;5.00;4.00;;;;;12.22;64.99;100643.22;5054725;28;45534;-76
2022/11/06 05:16:06;;;;;;;;;3.00;3.00;;;;;12.22;64.88;100639.75;5053894;28;45814;-78
2022/11/06 05:18:32;;;;;;;;;5.00;3.50;;;;;12.22;64.75;100645.00;5053660;28;45896;-76
2022/11/06 05:23:46;;;;;;;;;3.50;3.00;;;;;12.19;65.21;100630.34;5047517;28;45753;-77
2022/11/06 05:26:12;;;;;;;;;3.50;3.50;;;;;12.20;65.00;100629.34;5050841;28;45821;-77
2022/11/06 05:28:38;;;;;;;;;2.50;2.50;;;;;12.19;64.80;100615.41;5055338;28;46383;-76
2022/11/06 05:31:04;;;;;;;;;3.00;2.00;;;;;12.21;65.03;100617.91;5054027;28;47139;-77
2022/11/06 05:33:29;;;;;;;;;3.25;2.75;;;;;12.18;64.74;100597.16;5054078;28;45764;-76
2022/11/06 05:35:55;;;;;;;;;3.75;3.00;;;;;12.23;64.87;100599.41;5053291;28;45430;-78
2022/11/06 05:38:21;;;;;;;;;3.00;3.00;;;;;12.17;65.18;100587.59;5058346;28;46191;-77
2022/11/06 05:40:46;;;;;;;;;5.00;4.00;;;;;12.11;64.59;100575.78;5054348;28;47237;-77
2022/11/06 05:43:13;;;;;;;;;4.00;3.50;;;;;12.15;65.03;100590.31;5053814;28;45839;-77
2022/11/06 05:45:39;;;;;;;;;4.75;3.00;;;;;12.21;64.82;100594.25;5056585;28;45656;-77
2022/11/06 05:48:05;;;;;;;;;4.00;3.75;;;;;12.20;64.70;100596.06;5054055;28;47648;-77
2022/11/06 05:50:33;;;;;;;;;4.00;3.00;;;;;12.19;64.88;100593.56;5053572;28;45697;-77
2022/11/06 05:52:59;;;;;;;;;4.25;2.50;;;;;12.18;64.62;100590.09;5054013;28;45527;-76
2022/11/06 05:55:25;;;;;;;;;3.00;3.00;;;;;12.17;64.81;100596.31;5053929;28;45623;-77
2022/11/06 05:57:51;;;;;;;;;5.00;3.75;;;;;12.17;64.69;100601.56;5053359;28;46470;-77
2022/11/06 06:00:16;;;;;;;;;4.00;3.00;;;;;12.17;64.82;100592.84;5034825;28;46254;-77
2022/11/06 06:02:42;;;;;;;;;2.75;2.00;;;;;12.11;64.57;100585.44;5053125;28;45680;-77
2022/11/06 06:05:07;;;;;;;;;5.00;3.25;;;;;12.16;64.51;100599.88;5052512;28;45681;-77
2022/11/06 06:07:33;;;;;;;;;3.25;3.25;;;;;12.14;64.70;100593.09;5053635;28;46450;-77
2022/11/06 06:09:59;;;;;;;;;5.75;3.25;;;;;12.12;64.53;100590.56;5053503;28;46139;-77
2022/11/06 06:12:25;;;;;;;;;4.75;3.00;;;;;12.15;64.69;100597.38;5053675;28;45914;-77
2022/11/06 06:14:51;;;;;;;;;4.50;3.50;;;;;11.98;64.62;100566.34;5053240;28;45692;-77
2022/11/06 06:17:17;;;;;;;;;4.00;4.00;;;;;12.13;64.47;100584.38;5052874;28;45794;-77
2022/11/06 06:19:42;;;;;;;;;4.00;3.25;;;;;12.13;64.69;100575.66;5053045;28;45896;-76
2022/11/06 06:22:08;;;;;;;;;4.25;3.50;;;;;12.06;64.61;100562.16;5053814;28;45949;-78
2022/11/06 06:24:34;;;;;;;;;6.00;4.00;;;;;12.10;64.55;100573.25;5045704;28;46395;-77
2022/11/06 06:27:00;;;;;;;;;6.00;3.50;;;;;12.05;64.84;100562.28;5059435;28;45683;-77
2022/11/06 06:29:25;;;;;;;;;4.75;3.00;;;;;12.10;64.86;100566.22;5059166;28;46363;-77
2022/11/06 06:31:50;;;;;;;;;3.00;3.00;;;;;12.10;64.68;100560.13;5053652;28;45655;-77
2022/11/06 06:34:16;;;;;;;;;4.00;3.00;;;;;12.09;64.51;100550.59;5053476;28;46095;-77
2022/11/06 06:36:41;;;;;;;;;5.00;4.00;;;;;12.12;64.50;100537.22;5047523;28;46386;-77
2022/11/06 06:39:06;;;;;;;;;3.50;3.00;;;;;12.11;64.49;100539.00;5053874;28;45951;-78
2022/11/06 06:41:32;;;;;;;;;6.25;6.00;;;;;12.10;64.63;100539.94;5054437;28;46020;-78
2022/11/06 06:43:57;;;;;;;;;3.75;3.00;;;;;12.11;64.76;100532.91;5052920;28;46024;-77
2022/11/06 06:46:23;;;;;;;;;3.50;3.50;;;;;12.10;64.60;100532.06;5052096;28;46055;-77
2022/11/06 06:48:48;;;;;;;;;3.75;3.00;;;;;12.06;64.64;100522.78;5052962;28;45722;-77
2022/11/06 06:51:14;;;;;;;;;2.75;2.50;;;;;12.00;64.30;100512.75;5052875;28;45695;-77
2022/11/06 06:53:39;;;;;;;;;4.00;4.00;;;;;12.10;64.38;100528.63;5052833;28;45746;-76
2022/11/06 06:56:05;;;;;;;;;6.25;4.00;;;;;12.10;64.73;100531.22;5052392;28;45679;-77
2022/11/06 06:58:30;;;;;;;;;4.00;4.00;;;;;12.10;64.45;100512.84;5052697;28;46055;-78
2022/11/06 07:01:04;;;;;;;;;4.75;4.75;;;;;11.98;64.39;100487.59;5052690;28;45816;-78
2022/11/06 07:03:30;;;;;;;;;3.00;3.00;;;;;12.07;64.58;100500.81;5052795;28;45545;-78
2022/11/06 07:05:57;;;;;;;;;5.25;5.25;;;;;12.09;64.42;100509.38;5051598;28;47487;-78
2022/11/06 07:08:24;;;;;;;;;3.00;3.00;;;;;12.11;64.58;100506.66;5052221;28;47252;-77
2022/11/06 07:10:49;;;;;;;;;8.00;4.00;;;;;12.10;64.39;100510.22;5034759;28;45759;-76
2022/11/06 07:13:15;;;;;;;;;7.50;6.75;;;;;12.03;64.44;100507.28;5052798;28;45878;-77
2022/11/06 07:15:40;;;;;;;;;26.50;23.75;;;;;12.05;64.39;100507.97;5052158;28;47796;-75
2022/11/06 07:18:06;;;;;;;;;4.50;4.50;;;;;12.07;64.30;100508.69;5054633;28;46189;-78
2022/11/06 07:20:33;;;;;;;;;4.00;3.00;;;;;12.11;64.18;100509.28;5036716;28;45811;-77
2022/11/06 07:23:09;;;;;;;;;5.25;4.75;;;;;12.10;64.45;100497.09;5036617;28;45961;-77
2022/11/06 07:25:35;;;;;;;;;4.00;3.00;;;;;12.11;64.25;100499.63;5054648;28;46371;-77
2022/11/06 07:28:02;;;;;;;;;4.00;4.00;;;;;12.06;64.18;100503.56;5053717;28;45717;-78
2022/11/06 07:30:30;;;;;;;;;4.75;4.75;;;;;12.10;64.36;100507.59;5053445;28;45500;-78
2022/11/06 07:33:01;;;;;;;;;4.50;4.00;;;;;12.08;64.35;100505.13;5054224;28;45646;-76
2022/11/06 07:35:27;;;;;;;;;4.00;4.00;;;;;12.11;64.16;100493.53;5054008;28;47361;-77
2022/11/06 07:37:52;;;;;;;;;7.00;6.50;;;;;12.12;64.04;100487.31;5054181;28;46764;-78
2022/11/06 07:40:18;;;;;;;;;5.75;4.00;;;;;12.08;64.04;100464.91;5036499;28;45555;-77
2022/11/06 07:42:43;;;;;;;;;13.75;12.75;;;;;12.14;64.24;100477.53;5054711;28;45496;-77
2022/11/06 07:45:09;;;;;;;;;13.50;9.00;;;;;12.14;63.88;100478.38;5036138;28;46375;-76
2022/11/06 07:50:56;;;;;;;;;34.00;30.75;;;;;12.16;64.09;100494.00;5054266;28;45620;-77
2022/11/06 07:53:23;;;;;;;;;66.00;50.50;;;;;12.15;63.89;100485.28;5054185;28;45894;-76
2022/11/06 07:55:50;;;;;;;;;59.25;48.00;;;;;12.17;63.84;100487.78;5053712;28;45891;-77
2022/11/06 07:58:18;;;;;;;;;30.25;27.50;;;;;12.17;63.96;100493.03;5054115;28;46446;-77
2022/11/06 08:00:48;;;;;;;;;30.50;27.50;;;;;12.20;63.82;100483.13;5053987;28;46022;-78
2022/11/06 08:03:13;;;;;;;;;13.25;11.25;;;;;12.08;63.97;100463.09;5054064;28;45635;-77
2022/11/06 08:05:39;;;;;;;;;6.50;6.50;;;;;12.22;64.01;100483.00;5054067;28;47191;-76
2022/11/06 08:08:04;;;;;;;;;8.00;6.00;;;;;12.23;63.64;100487.31;5054222;28;46174;-77
2022/11/06 08:10:29;;;;;;;;;7.00;5.00;;;;;12.24;63.75;100481.09;5053817;28;45509;-77
2022/11/06 08:12:55;;;;;;;;;7.25;7.25;;;;;12.25;63.88;100489.81;5054228;28;45517;-78
2022/11/06 08:15:20;;;;;;;;;7.75;5.00;;;;;12.26;63.84;100487.03;5053895;28;45593;-77
2022/11/06 08:21:07;;;;;;;;;6.00;4.00;;;;;12.31;63.53;100476.19;5053746;28;45459;-75
2022/11/06 08:23:35;;;;;;;;;9.50;8.25;;;;;12.20;63.55;100450.75;5054034;28;45532;-75
2022/11/06 08:26:03;;;;;;;;;4.00;3.00;;;;;12.32;63.47;100459.44;5052621;28;46622;-78
2022/11/06 08:28:29;;;;;;;;;6.00;5.50;;;;;12.32;63.47;100460.28;5053656;28;46264;-78
2022/11/06 08:30:54;;;;;;;;;5.25;5.25;;;;;12.28;63.76;100448.38;5053553;28;45672;-76
2022/11/06 08:33:21;;;;;;;;;8.00;6.75;;;;;12.30;63.82;100446.47;5053720;28;45735;-77
2022/11/06 08:35:46;;;;;;;;;6.75;6.50;;;;;12.28;64.09;100440.47;5035585;28;47517;-77
2022/11/06 08:38:12;;;;;;;;;7.75;7.00;;;;;12.31;63.99;100442.84;5054030;28;46133;-77
2022/11/06 08:40:38;;;;;;;;;6.50;6.50;;;;;12.34;64.07;100455.75;5053973;28;45546;-78
2022/11/06 08:43:06;;;;;;;;;4.25;4.00;;;;;12.35;64.28;100460.06;5053784;28;45553;-76
2022/11/06 08:45:37;;;;;;;;;3.75;3.50;;;;;12.30;64.53;100456.13;5053208;28;46833;-75
2022/11/06 08:51:24;;;;;;;;;9.75;8.00;;;;;12.35;64.57;100457.44;5053419;28;45675;-76
2022/11/06 08:53:50;;;;;;;;;15.00;14.25;;;;;12.34;64.67;100468.88;5053906;28;45616;-76
2022/11/06 08:56:15;;;;;;;;;12.25;11.75;;;;;12.36;64.51;100477.47;5052998;28;46406;-77
2022/11/06 08:58:41;;;;;;;;;5.25;4.75;;;;;12.34;64.48;100457.53;5053578;28;45663;-76
2022/11/06 09:01:06;;;;;;;;;10.00;9.75;;;;;12.36;65.00;100464.31;5035534;28;45624;-77
2022/11/06 09:06:57;;;;;;;;;8.25;7.00;;;;;12.38;64.94;100446.66;5053155;28;45967;-77
2022/11/06 09:09:30;;;;;;;;;12.75;11.75;;;;;12.38;64.99;100437.94;5053233;28;46720;-76
2022/11/06 09:11:59;;;;;;;;;7.75;7.75;;;;;12.34;65.35;100424.22;5053522;28;45727;-76
2022/11/06 09:14:25;;;;;;;;;7.50;7.50;;;;;12.42;65.33;100444.59;5053537;28;45715;-76
2022/11/06 09:16:51;;;;;;;;;7.75;7.25;;;;;12.38;65.37;100441.41;5052549;28;46416;-75
2022/11/06 09:19:17;;;;;;;;;9.25;8.50;;;;;12.38;65.28;100433.53;5053017;28;46201;-77
2022/11/06 09:21:42;;;;;;;;;8.50;8.25;;;;;12.42;65.32;100426.22;5053024;28;45740;-76
2022/11/06 09:24:07;;;;;;;;;8.75;8.00;;;;;12.41;65.70;100407.00;5053151;28;45634;-77
2022/11/06 09:26:33;;;;;;;;;9.50;9.25;;;;;12.46;65.66;100401.38;5052585;28;47038;-76
2022/11/06 09:28:59;;;;;;;;;7.75;7.75;;;;;12.46;66.02;100369.84;5052670;28;46580;-77
2022/11/06 09:31:24;;;;;;;;;7.00;5.25;;;;;12.33;65.90;100358.66;5052833;28;45668;-77
2022/11/06 09:37:13;;;;;;;;;7.00;4.25;;;;;12.41;66.00;100378.13;5052707;28;45535;-77
2022/11/06 09:39:38;;;;;;;;;4.25;4.25;;;;;12.42;66.30;100376.28;5056453;28;46312;-77
2022/11/06 09:42:22;;;;;;;;;7.00;5.00;;;;;12.42;66.05;100381.56;5055997;28;45600;-78
2022/11/06 09:44:50;;;;;;;;;4.00;4.00;;;;;12.43;66.02;100380.59;5056172;28;45612;-78
2022/11/06 09:47:21;;;;;;;;;5.00;4.00;;;;;12.43;66.18;100380.59;5055966;28;45642;-78
2022/11/06 09:49:51;;;;;;;;;6.25;5.00;;;;;12.46;66.00;100377.72;5056259;28;45558;-78
2022/11/06 09:52:39;;;;;;;;;7.00;5.25;;;;;12.46;66.50;100375.94;5055907;28;45814;-78
2022/11/06 09:55:15;;;;;;;;;5.00;4.50;;;;;12.47;66.39;100382.84;5056221;28;45477;-78
2022/11/06 09:57:46;;;;;;;;;7.00;5.25;;;;;12.48;66.06;100373.16;5056180;28;46260;-77
2022/11/06 10:00:14;;;;;;;;;7.00;5.25;;;;;12.48;66.65;100366.13;5055837;28;47315;-78
2022/11/06 10:02:48;;;;;;;;;7.00;5.50;;;;;12.48;66.54;100362.66;5055758;28;45801;-75
2022/11/06 10:05:31;;;;;;;;;5.25;5.25;;;;;12.48;66.10;100363.50;5055851;28;45708;-77
2022/11/06 10:08:03;;;;;;;;;8.25;4.25;;;;;12.48;66.36;100354.78;5055835;28;47525;-75
2022/11/06 10:10:40;;;;;;;;;7.00;4.75;;;;;12.47;66.59;100356.56;5055949;28;47022;-75
2022/11/06 10:13:21;;;;;;;;;9.25;8.50;;;;;12.48;66.70;100363.50;5055938;28;45768;-77
2022/11/06 10:15:58;;;;;;;;;8.25;5.50;;;;;12.48;66.59;100355.59;5055632;28;45875;-77
2022/11/06 10:18:42;;;;;;;;;21.00;18.25;;;;;12.47;66.81;100351.31;5055471;28;47392;-77
2022/11/06 10:21:21;;;;;;;;;9.50;8.75;;;;;12.47;66.69;100353.94;5055722;28;47027;-78
2022/11/06 10:23:53;;;;;;;;;16.50;14.75;;;;;12.48;66.84;100344.25;5055653;28;45549;-76
2022/11/06 10:26:26;;;;;;;;;16.00;15.50;;;;;12.48;66.73;100352.97;5055474;28;45600;-78
2022/11/06 10:29:20;;;;;;;;;10.25;9.00;;;;;12.41;66.70;100349.22;5055346;28;46898;-77
2022/11/06 10:31:54;;;;;;;;;5.50;5.00;;;;;12.47;67.02;100359.19;5055708;28;46169;-75
2022/11/06 10:34:43;;;;;;;;;6.00;6.00;;;;;12.46;66.83;100354.91;5055430;28;45745;-78
2022/11/06 10:37:34;;;;;;;;;8.75;8.00;;;;;12.46;66.82;100354.91;5055461;28;45650;-78
2022/11/06 10:40:04;;;;;;;;;9.00;7.00;;;;;12.43;66.73;100362.19;5054690;28;46728;-78
2022/11/06 10:42:39;;;;;;;;;7.50;7.00;;;;;12.43;66.91;100368.28;5054239;28;46135;-76
2022/11/06 10:45:15;;;;;;;;;7.50;6.00;;;;;12.42;67.02;100360.53;5054692;28;45579;-76
2022/11/06 10:51:19;;;;;;;;;10.50;9.75;;;;;12.41;66.95;100343.97;5053773;28;46010;-78
2022/11/06 10:54:02;;;;;;;;;25.50;19.00;;;;;12.43;67.20;100330.69;5055395;28;45983;-80
2022/11/06 10:57:01;;;;;;;;;20.00;17.25;;;;;12.41;67.37;100332.63;5054867;28;45516;-75
2022/11/06 10:59:27;;;;;;;;;18.75;17.00;;;;;12.39;67.28;100330.09;5055095;28;45735;-76
2022/11/06 11:01:52;;;;;;;;;14.00;12.50;;;;;12.35;67.48;100318.19;5055028;28;46880;-76
2022/11/06 11:07:43;;;;;;;;;9.00;8.00;;;;;12.40;67.41;100308.13;5054027;28;45755;-75
2022/11/06 11:10:31;;;;;;;;;9.00;8.00;;;;;12.37;67.57;100305.75;5054676;28;45526;-76
2022/11/06 11:12:59;;;;;;;;;9.75;9.00;;;;;12.41;67.95;100314.22;5054106;28;47398;-77
2022/11/06 11:15:47;;;;;;;;;10.00;9.00;;;;;12.41;67.70;100311.59;5053878;28;46366;-76
2022/11/06 11:18:32;;;;;;;;;10.50;10.00;;;;;12.40;67.63;100312.56;4992451;28;45676;-77
2022/11/06 11:21:25;;;;;;;;;11.25;8.50;;;;;12.41;67.85;100298.47;4992218;28;46051;-74
2022/11/06 11:23:59;;;;;;;;;17.25;14.00;;;;;12.42;67.85;100300.09;4933619;28;46469;-78
2022/11/06 11:26:27;;;;;;;;;8.00;8.00;;;;;12.41;67.94;100298.47;4933488;28;46258;-74
2022/11/06 11:28:59;;;;;;;;;51.25;39.75;;;;;12.43;67.88;100296.53;4933621;28;45806;-73
2022/11/06 11:31:30;;;;;;;;;34.25;32.25;;;;;12.42;68.00;100286.97;4933343;28;45702;-77
2022/11/06 11:34:02;;;;;;;;;41.25;33.75;;;;;12.42;67.81;100274.66;4933377;28;46757;-77
2022/11/06 11:36:46;;;;;;;;;14.75;13.75;;;;;12.42;67.98;100255.44;4933324;28;46172;-75
2022/11/06 11:39:13;;;;;;;;;15.25;14.50;;;;;12.44;68.35;100241.22;4933519;28;45851;-73
2022/11/06 11:41:38;;;;;;;;;11.00;9.75;;;;;12.43;67.98;100239.56;4933614;28;45566;-75
2022/11/06 11:44:13;;;;;;;;;19.00;18.50;;;;;12.37;68.00;100232.19;4933235;28;46239;-77
2022/11/06 11:46:51;;;;;;;;;17.50;17.25;;;;;12.42;68.14;100235.25;4933481;28;47395;-76
2022/11/06 11:49:34;;;;;;;;;18.50;17.25;;;;;12.41;68.08;100238.03;4933931;28;45861;-76
2022/11/06 11:52:12;;;;;;;;;11.00;9.50;;;;;12.41;68.38;100224.91;4933920;28;45696;-76
2022/11/06 11:54:39;;;;;;;;;9.75;9.00;;;;;12.36;68.24;100217.38;4943058;28;47150;-75
2022/11/06 11:57:16;;;;;;;;;8.00;7.25;;;;;12.41;68.29;100223.09;4972349;28;47000;-76
2022/11/06 11:59:55;;;;;;;;;13.00;11.75;;;;;12.42;68.43;100216.88;4976187;28;45608;-75
2022/11/06 12:02:34;;;;;;;;;11.75;10.00;;;;;12.43;68.42;100222.97;5035268;28;46181;-75
2022/11/06 12:05:21;;;;;;;;;14.00;12.25;;;;;12.44;68.44;100219.38;5053219;28;46577;-76
2022/11/06 12:07:51;;;;;;;;;10.75;10.00;;;;;12.44;68.59;100211.50;5053418;28;46646;-75
2022/11/06 12:10:37;;;;;;;;;12.75;12.75;;;;;12.47;68.35;100219.13;5053715;28;45605;-81
2022/11/06 12:13:21;;;;;;;;;11.50;10.00;;;;;12.47;68.57;100209.41;5054993;28;45652;-82
2022/11/06 12:16:18;;;;;;;;;9.25;9.00;;;;;12.47;68.56;100203.38;5053749;28;45694;-75